sensor_id;sensor_type;location;lat;lon;timestamp;pressure;altitude;pressure_sealevel;temperature;humidity
33949;BME280;20229;49.856;19.030;2024-01-15T00:02:08;99864.63;;;1.87;76.47
33949;BME280;20229;49.856;19.030;2024-01-15T00:07:23;99852.09;;;1.86;75.71
33949;BME280;20229;49.856;19.030;2024-01-15T00:12:36;99841.32;;;1.86;76.49
33949;BME280;20229;49.856;19.030;2024-01-15T00:17:50;99823.42;;;1.85;76.24
33949;BME280;20229;49.856;19.030;2024-01-15T00:23:04;99819.79;;;1.86;75.84
33949;BME280;20229;49.856;19.030;2024-01-15T00:28:19;99820.73;;;1.85;75.86
33949;BME280;20229;49.856;19.030;2024-01-15T00:33:33;99816.29;;;1.84;76.08
33949;BME280;20229;49.856;19.030;2024-01-15T00:38:48;99809.13;;;1.83;75.46
33949;BME280;20229;49.856;19.030;2024-01-15T00:44:03;99801.05;;;1.83;75.45
33949;BME280;20229;49.856;19.030;2024-01-15T00:49:17;99801.23;;;1.79;75.73
33949;BME280;20229;49.856;19.030;2024-01-15T00:54:31;99796.02;;;1.74;76.13
33949;BME280;20229;49.856;19.030;2024-01-15T00:59:47;99788.05;;;1.71;76.73
33949;BME280;20229;49.856;19.030;2024-01-15T01:05:02;99779.14;;;1.69;76.68
33949;BME280;20229;49.856;19.030;2024-01-15T01:10:17;99772.09;;;1.66;76.41
33949;BME280;20229;49.856;19.030;2024-01-15T01:15:31;99769.26;;;1.70;76.43
33949;BME280;20229;49.856;19.030;2024-01-15T01:20:47;99763.00;;;1.69;76.05
33949;BME280;20229;49.856;19.030;2024-01-15T01:26:01;99756.71;;;1.70;76.61
33949;BME280;20229;49.856;19.030;2024-01-15T01:31:15;99750.48;;;1.68;75.93
33949;BME280;20229;49.856;19.030;2024-01-15T01:36:31;99736.09;;;1.69;76.51
33949;BME280;20229;49.856;19.030;2024-01-15T01:41:47;99738.09;;;1.64;76.19
33949;BME280;20229;49.856;19.030;2024-01-15T01:47:02;99735.57;;;1.59;76.05
33949;BME280;20229;49.856;19.030;2024-01-15T01:52:17;99718.66;;;1.56;76.22
33949;BME280;20229;49.856;19.030;2024-01-15T01:57:32;99691.77;;;1.56;75.68
33949;BME280;20229;49.856;19.030;2024-01-15T02:02:48;99682.09;;;1.50;75.45
33949;BME280;20229;49.856;19.030;2024-01-15T02:08:02;99685.06;;;1.42;75.49
33949;BME280;20229;49.856;19.030;2024-01-15T02:13:17;99671.13;;;1.31;75.07
33949;BME280;20229;49.856;19.030;2024-01-15T02:18:41;99670.08;;;1.35;75.22
33949;BME280;20229;49.856;19.030;2024-01-15T02:23:58;99680.63;;;1.41;75.25
33949;BME280;20229;49.856;19.030;2024-01-15T02:29:12;99687.64;;;1.46;75.00
33949;BME280;20229;49.856;19.030;2024-01-15T02:34:31;99678.64;;;1.47;74.79
33949;BME280;20229;49.856;19.030;2024-01-15T02:39:46;99667.81;;;1.48;74.78
33949;BME280;20229;49.856;19.030;2024-01-15T02:45:02;99652.61;;;1.47;74.52
33949;BME280;20229;49.856;19.030;2024-01-15T02:50:16;99656.18;;;1.48;74.53
33949;BME280;20229;49.856;19.030;2024-01-15T02:55:30;99661.55;;;1.48;74.80
33949;BME280;20229;49.856;19.030;2024-01-15T03:00:44;99639.06;;;1.50;74.62
33949;BME280;20229;49.856;19.030;2024-01-15T03:06:01;99649.75;;;1.52;74.79
33949;BME280;20229;49.856;19.030;2024-01-15T03:11:15;99638.08;;;1.53;74.88
33949;BME280;20229;49.856;19.030;2024-01-15T03:16:30;99627.33;;;1.53;74.76
33949;BME280;20229;49.856;19.030;2024-01-15T03:21:44;99624.45;;;1.57;74.78
33949;BME280;20229;49.856;19.030;2024-01-15T03:27:00;99619.15;;;1.56;75.37
33949;BME280;20229;49.856;19.030;2024-01-15T03:32:14;99606.57;;;1.56;74.58
33949;BME280;20229;49.856;19.030;2024-01-15T03:37:29;99604.79;;;1.55;75.06
33949;BME280;20229;49.856;19.030;2024-01-15T03:42:47;99586.80;;;1.57;74.46
33949;BME280;20229;49.856;19.030;2024-01-15T03:48:03;99586.73;;;1.59;74.52
33949;BME280;20229;49.856;19.030;2024-01-15T03:53:17;99578.55;;;1.62;74.37
33949;BME280;20229;49.856;19.030;2024-01-15T03:58:31;99574.04;;;1.62;73.42
33949;BME280;20229;49.856;19.030;2024-01-15T04:03:44;99572.18;;;1.64;73.83
33949;BME280;20229;49.856;19.030;2024-01-15T04:08:59;99576.69;;;1.64;74.26
33949;BME280;20229;49.856;19.030;2024-01-15T04:14:13;99560.44;;;1.67;74.06
33949;BME280;20229;49.856;19.030;2024-01-15T04:19:27;99556.80;;;1.68;73.63
33949;BME280;20229;49.856;19.030;2024-01-15T04:24:41;99552.10;;;1.73;73.42
33949;BME280;20229;49.856;19.030;2024-01-15T04:29:55;99500.31;;;1.44;73.42
33949;BME280;20229;49.856;19.030;2024-01-15T04:35:09;99541.34;;;1.73;73.47
33949;BME280;20229;49.856;19.030;2024-01-15T04:40:24;99524.29;;;1.74;73.74
33949;BME280;20229;49.856;19.030;2024-01-15T04:45:42;99532.16;;;1.79;73.42
33949;BME280;20229;49.856;19.030;2024-01-15T04:50:57;99550.13;;;1.78;73.71
33949;BME280;20229;49.856;19.030;2024-01-15T04:56:11;99550.05;;;1.80;73.80
33949;BME280;20229;49.856;19.030;2024-01-15T05:01:25;99550.96;;;1.80;74.16
33949;BME280;20229;49.856;19.030;2024-01-15T05:06:39;99532.05;;;1.82;73.87
33949;BME280;20229;49.856;19.030;2024-01-15T05:11:53;99540.20;;;1.80;74.73
33949;BME280;20229;49.856;19.030;2024-01-15T05:17:08;99534.81;;;1.80;74.81
33949;BME280;20229;49.856;19.030;2024-01-15T05:22:22;99511.63;;;1.76;75.20
33949;BME280;20229;49.856;19.030;2024-01-15T05:27:40;99505.57;;;1.71;75.32
33949;BME280;20229;49.856;19.030;2024-01-15T05:32:54;99495.80;;;1.68;75.41
33949;BME280;20229;49.856;19.030;2024-01-15T05:38:08;99497.62;;;1.68;75.00
33949;BME280;20229;49.856;19.030;2024-01-15T05:43:22;99475.27;;;1.66;74.77
33949;BME280;20229;49.856;19.030;2024-01-15T05:48:36;99463.48;;;1.70;74.63
33949;BME280;20229;49.856;19.030;2024-01-15T05:53:51;99471.39;;;1.73;74.46
33949;BME280;20229;49.856;19.030;2024-01-15T05:59:12;99484.84;;;1.73;73.59
33949;BME280;20229;49.856;19.030;2024-01-15T06:04:26;99497.42;;;1.73;73.72
33949;BME280;20229;49.856;19.030;2024-01-15T06:09:41;99511.75;;;1.73;73.75
33949;BME280;20229;49.856;19.030;2024-01-15T06:14:56;99495.60;;;1.73;73.92
33949;BME280;20229;49.856;19.030;2024-01-15T06:20:11;99499.13;;;1.75;73.57
33949;BME280;20229;49.856;19.030;2024-01-15T06:25:25;99505.37;;;1.76;74.28
33949;BME280;20229;49.856;19.030;2024-01-15T06:30:39;99500.87;;;1.76;74.13
33949;BME280;20229;49.856;19.030;2024-01-15T06:35:53;99510.84;;;1.74;74.04
33949;BME280;20229;49.856;19.030;2024-01-15T06:41:07;99507.16;;;1.77;74.14
33949;BME280;20229;49.856;19.030;2024-01-15T06:46:22;99510.84;;;1.74;74.18
33949;BME280;20229;49.856;19.030;2024-01-15T06:51:36;99511.63;;;1.76;74.08
33949;BME280;20229;49.856;19.030;2024-01-15T06:56:51;99522.39;;;1.76;74.48
33949;BME280;20229;49.856;19.030;2024-01-15T07:02:05;99527.66;;;1.79;74.08
33949;BME280;20229;49.856;19.030;2024-01-15T07:07:19;99530.35;;;1.79;74.31
33949;BME280;20229;49.856;19.030;2024-01-15T07:12:33;99544.55;;;1.83;74.37
33949;BME280;20229;49.856;19.030;2024-01-15T07:17:50;99550.96;;;1.80;75.00
33949;BME280;20229;49.856;19.030;2024-01-15T07:23:04;99548.20;;;1.82;74.83
33949;BME280;20229;49.856;19.030;2024-01-15T07:28:18;99564.27;;;1.83;74.89
33949;BME280;20229;49.856;19.030;2024-01-15T07:33:32;99560.59;;;1.86;74.90
33949;BME280;20229;49.856;19.030;2024-01-15T07:38:46;99540.00;;;1.85;74.66
33949;BME280;20229;49.856;19.030;2024-01-15T07:44:00;99545.20;;;1.89;74.45
33949;BME280;20229;49.856;19.030;2024-01-15T07:49:14;99532.58;;;1.91;74.44
33949;BME280;20229;49.856;19.030;2024-01-15T07:54:30;99535.19;;;1.93;74.41
33949;BME280;20229;49.856;19.030;2024-01-15T07:59:44;99547.65;;;1.96;74.32
33949;BME280;20229;49.856;19.030;2024-01-15T08:04:59;99585.02;;;2.03;74.09
33949;BME280;20229;49.856;19.030;2024-01-15T08:10:13;99618.77;;;2.12;74.35
33949;BME280;20229;49.856;19.030;2024-01-15T08:15:27;99625.80;;;2.16;73.14
33949;BME280;20229;49.856;19.030;2024-01-15T08:20:42;99622.39;;;2.11;71.73
33949;BME280;20229;49.856;19.030;2024-01-15T08:25:58;99626.98;;;2.09;71.59
33949;BME280;20229;49.856;19.030;2024-01-15T08:31:12;99633.36;;;2.06;71.23
33949;BME280;20229;49.856;19.030;2024-01-15T08:36:27;99642.98;;;2.12;71.28
33949;BME280;20229;49.856;19.030;2024-01-15T08:41:44;99635.73;;;2.14;71.46
33949;BME280;20229;49.856;19.030;2024-01-15T08:46:58;99635.73;;;2.14;70.68
33949;BME280;20229;49.856;19.030;2024-01-15T08:52:12;99632.11;;;2.15;71.26
33949;BME280;20229;49.856;19.030;2024-01-15T08:57:27;99645.56;;;2.15;70.49
33949;BME280;20229;49.856;19.030;2024-01-15T09:02:42;99646.40;;;2.17;70.44
33949;BME280;20229;49.856;19.030;2024-01-15T09:07:56;99655.00;;;2.27;70.62
33949;BME280;20229;49.856;19.030;2024-01-15T09:13:11;99641.90;;;2.39;70.21
33949;BME280;20229;49.856;19.030;2024-01-15T09:18:25;99650.07;;;2.60;68.77
33949;BME280;20229;49.856;19.030;2024-01-15T09:23:39;99641.74;;;2.66;68.22
33949;BME280;20229;49.856;19.030;2024-01-15T09:28:55;99638.64;;;2.75;68.08
33949;BME280;20229;49.856;19.030;2024-01-15T09:34:09;99644.78;;;3.01;68.53
33949;BME280;20229;49.856;19.030;2024-01-15T09:39:27;99650.45;;;3.15;67.93
33949;BME280;20229;49.856;19.030;2024-01-15T09:44:42;99642.28;;;3.17;67.82
33949;BME280;20229;49.856;19.030;2024-01-15T09:49:56;99653.41;;;3.09;68.24
33949;BME280;20229;49.856;19.030;2024-01-15T09:55:13;99641.13;;;3.02;68.03
33949;BME280;20229;49.856;19.030;2024-01-15T10:00:29;99644.50;;;3.07;67.99
33949;BME280;20229;49.856;19.030;2024-01-15T10:05:46;99653.61;;;3.04;67.66
33949;BME280;20229;49.856;19.030;2024-01-15T10:11:14;99645.98;;;2.94;67.96
33949;BME280;20229;49.856;19.030;2024-01-15T10:16:42;99663.73;;;2.77;68.66
33949;BME280;20229;49.856;19.030;2024-01-15T10:21:56;99645.41;;;2.85;68.82
33949;BME280;20229;49.856;19.030;2024-01-15T10:27:12;99648.14;;;3.06;68.60
33949;BME280;20229;49.856;19.030;2024-01-15T10:32:29;99643.11;;;3.19;67.19
33949;BME280;20229;49.856;19.030;2024-01-15T10:37:48;99655.15;;;3.10;66.69
33949;BME280;20229;49.856;19.030;2024-01-15T10:43:02;99656.65;;;3.17;67.18
33949;BME280;20229;49.856;19.030;2024-01-15T10:48:18;99648.21;;;3.25;67.16
33949;BME280;20229;49.856;19.030;2024-01-15T10:53:34;99649.50;;;3.16;66.39
33949;BME280;20229;49.856;19.030;2024-01-15T10:58:54;99658.42;;;3.18;66.15
33949;BME280;20229;49.856;19.030;2024-01-15T11:04:08;99654.97;;;3.35;65.88
33949;BME280;20229;49.856;19.030;2024-01-15T11:09:24;99666.09;;;3.27;64.69
33949;BME280;20229;49.856;19.030;2024-01-15T11:14:39;99656.92;;;3.31;65.45
33949;BME280;20229;49.856;19.030;2024-01-15T11:19:53;99630.43;;;3.41;65.15
33949;BME280;20229;49.856;19.030;2024-01-15T11:25:14;99631.69;;;3.53;64.96
33949;BME280;20229;49.856;19.030;2024-01-15T11:30:35;99633.33;;;3.57;64.67
33949;BME280;20229;49.856;19.030;2024-01-15T11:35:50;99625.63;;;3.68;64.58
33949;BME280;20229;49.856;19.030;2024-01-15T11:41:13;99623.34;;;3.78;63.38
33949;BME280;20229;49.856;19.030;2024-01-15T11:47:03;99629.70;;;3.77;64.36
33949;BME280;20229;49.856;19.030;2024-01-15T11:52:19;99621.70;;;3.75;64.32
33949;BME280;20229;49.856;19.030;2024-01-15T11:57:41;99623.44;;;3.76;64.46
33949;BME280;20229;49.856;19.030;2024-01-15T12:02:59;99609.57;;;3.65;63.23
33949;BME280;20229;49.856;19.030;2024-01-15T12:08:23;99614.01;;;3.66;64.20
33949;BME280;20229;49.856;19.030;2024-01-15T12:13:39;99621.01;;;3.70;64.20
33949;BME280;20229;49.856;19.030;2024-01-15T12:18:53;99611.18;;;3.88;63.77
33949;BME280;20229;49.856;19.030;2024-01-15T12:24:10;99609.62;;;4.03;62.35
33949;BME280;20229;49.856;19.030;2024-01-15T12:29:23;99596.45;;;3.76;62.29
33949;BME280;20229;49.856;19.030;2024-01-15T12:34:37;99591.67;;;3.63;63.38
33949;BME280;20229;49.856;19.030;2024-01-15T12:39:52;99590.97;;;3.39;62.56
33949;BME280;20229;49.856;19.030;2024-01-15T12:45:12;99587.09;;;3.25;63.08
33949;BME280;20229;49.856;19.030;2024-01-15T12:50:26;99603.30;;;3.03;62.47
33949;BME280;20229;49.856;19.030;2024-01-15T12:55:41;99602.52;;;3.01;63.03
33949;BME280;20229;49.856;19.030;2024-01-15T13:00:58;99605.95;;;3.05;62.58
33949;BME280;20229;49.856;19.030;2024-01-15T13:06:12;99602.18;;;3.09;63.15
33949;BME280;20229;49.856;19.030;2024-01-15T13:11:27;99588.95;;;3.03;62.33
33949;BME280;20229;49.856;19.030;2024-01-15T13:16:42;99594.35;;;3.03;62.90
33949;BME280;20229;49.856;19.030;2024-01-15T13:21:59;99586.51;;;2.97;62.36
33949;BME280;20229;49.856;19.030;2024-01-15T13:27:15;99599.25;;;2.93;63.05
33949;BME280;20229;49.856;19.030;2024-01-15T13:32:30;99595.27;;;2.81;63.33
33949;BME280;20229;49.856;19.030;2024-01-15T13:37:44;99596.27;;;2.79;63.49
33949;BME280;20229;49.856;19.030;2024-01-15T13:42:58;99592.16;;;2.70;64.17
33949;BME280;20229;49.856;19.030;2024-01-15T13:48:12;99610.36;;;2.65;64.30
33949;BME280;20229;49.856;19.030;2024-01-15T13:53:26;99609.98;;;2.52;64.77
33949;BME280;20229;49.856;19.030;2024-01-15T13:58:40;99597.74;;;2.44;66.01
33949;BME280;20229;49.856;19.030;2024-01-15T14:03:54;99602.57;;;2.35;65.98
33949;BME280;20229;49.856;19.030;2024-01-15T14:09:08;99605.66;;;2.26;66.27
33949;BME280;20229;49.856;19.030;2024-01-15T14:14:23;99608.70;;;2.17;66.71
33949;BME280;20229;49.856;19.030;2024-01-15T14:19:38;99612.46;;;2.13;67.41
33949;BME280;20229;49.856;19.030;2024-01-15T14:24:52;99626.34;;;2.02;67.91
33949;BME280;20229;49.856;19.030;2024-01-15T14:30:08;99618.43;;;1.98;68.28
33949;BME280;20229;49.856;19.030;2024-01-15T14:35:22;99619.67;;;1.89;68.72
33949;BME280;20229;49.856;19.030;2024-01-15T14:40:36;99630.51;;;1.87;69.09
33949;BME280;20229;49.856;19.030;2024-01-15T14:45:51;99629.78;;;1.82;69.58
33949;BME280;20229;49.856;19.030;2024-01-15T14:51:05;99629.97;;;1.78;69.55
33949;BME280;20229;49.856;19.030;2024-01-15T14:56:20;99630.12;;;1.73;70.02
33949;BME280;20229;49.856;19.030;2024-01-15T15:01:35;99635.68;;;1.68;70.00
33949;BME280;20229;49.856;19.030;2024-01-15T15:06:48;99637.61;;;1.65;70.42
33949;BME280;20229;49.856;19.030;2024-01-15T15:12:05;99632.34;;;1.62;70.65
33949;BME280;20229;49.856;19.030;2024-01-15T15:17:22;99632.45;;;1.59;70.68
33949;BME280;20229;49.856;19.030;2024-01-15T15:22:36;99636.95;;;1.58;71.17
33949;BME280;20229;49.856;19.030;2024-01-15T15:27:50;99637.97;;;1.56;71.22
33949;BME280;20229;49.856;19.030;2024-01-15T15:33:04;99637.97;;;1.56;71.37
33949;BME280;20229;49.856;19.030;2024-01-15T15:38:20;99645.31;;;1.51;71.71
33949;BME280;20229;49.856;19.030;2024-01-15T15:43:36;99650.66;;;1.52;71.46
33949;BME280;20229;49.856;19.030;2024-01-15T15:48:50;99648.95;;;1.50;71.64
33949;BME280;20229;49.856;19.030;2024-01-15T15:54:04;99656.07;;;1.51;72.11
33949;BME280;20229;49.856;19.030;2024-01-15T15:59:19;99651.68;;;1.48;71.80
33949;BME280;20229;49.856;19.030;2024-01-15T16:04:35;99654.32;;;1.50;71.92
33949;BME280;20229;49.856;19.030;2024-01-15T16:09:49;99657.95;;;1.49;71.86
33949;BME280;20229;49.856;19.030;2024-01-15T16:15:16;99669.52;;;1.51;71.89
33949;BME280;20229;49.856;19.030;2024-01-15T16:20:29;99662.43;;;1.48;72.05
33949;BME280;20229;49.856;19.030;2024-01-15T16:25:46;99666.02;;;1.49;72.17
33949;BME280;20229;49.856;19.030;2024-01-15T16:31:00;99670.46;;;1.50;72.43
33949;BME280;20229;49.856;19.030;2024-01-15T16:36:14;99661.52;;;1.49;72.33
33949;BME280;20229;49.856;19.030;2024-01-15T16:41:29;99659.70;;;1.50;72.11
33949;BME280;20229;49.856;19.030;2024-01-15T16:46:45;99670.57;;;1.47;72.35
33949;BME280;20229;49.856;19.030;2024-01-15T16:51:59;99671.62;;;1.42;72.14
33949;BME280;20229;49.856;19.030;2024-01-15T16:57:14;99675.18;;;1.43;72.15
33949;BME280;20229;49.856;19.030;2024-01-15T17:02:28;99677.97;;;1.40;72.48
33949;BME280;20229;49.856;19.030;2024-01-15T17:07:42;99686.04;;;1.40;72.73
33949;BME280;20229;49.856;19.030;2024-01-15T17:12:56;99676.16;;;1.40;72.58
33949;BME280;20229;49.856;19.030;2024-01-15T17:18:11;99685.16;;;1.39;72.98
33949;BME280;20229;49.856;19.030;2024-01-15T17:23:25;99689.67;;;1.39;73.03
33949;BME280;20229;49.856;19.030;2024-01-15T17:28:40;99690.55;;;1.39;73.25
33949;BME280;20229;49.856;19.030;2024-01-15T17:33:54;99690.55;;;1.39;73.83
33949;BME280;20229;49.856;19.030;2024-01-15T17:39:10;99694.11;;;1.40;74.21
33949;BME280;20229;49.856;19.030;2024-01-15T17:44:25;99701.30;;;1.39;74.54
33949;BME280;20229;49.856;19.030;2024-01-15T17:49:40;99696.90;;;1.37;76.24
33949;BME280;20229;49.856;19.030;2024-01-15T17:54:59;99695.35;;;1.30;76.80
33949;BME280;20229;49.856;19.030;2024-01-15T18:00:14;99693.71;;;1.26;76.86
33949;BME280;20229;49.856;19.030;2024-01-15T18:05:28;99692.06;;;1.22;77.32
33949;BME280;20229;49.856;19.030;2024-01-15T18:10:45;99694.76;;;1.22;76.87
33949;BME280;20229;49.856;19.030;2024-01-15T18:15:59;99705.51;;;1.22;76.58
33949;BME280;20229;49.856;19.030;2024-01-15T18:21:13;99692.09;;;1.20;76.50
33949;BME280;20229;49.856;19.030;2024-01-15T18:26:28;99697.55;;;1.18;76.54
33949;BME280;20229;49.856;19.030;2024-01-15T18:31:43;99715.42;;;1.19;76.36
33949;BME280;20229;49.856;19.030;2024-01-15T18:36:57;99700.16;;;1.20;76.28
33949;BME280;20229;49.856;19.030;2024-01-15T18:42:11;99705.54;;;1.20;76.05
33949;BME280;20229;49.856;19.030;2024-01-15T18:47:25;99704.77;;;1.16;76.38
33949;BME280;20229;49.856;19.030;2024-01-15T18:52:40;99705.70;;;1.15;76.52
33949;BME280;20229;49.856;19.030;2024-01-15T18:57:55;99713.84;;;1.14;76.31
33949;BME280;20229;49.856;19.030;2024-01-15T19:03:09;99718.27;;;1.15;75.92
33949;BME280;20229;49.856;19.030;2024-01-15T19:08:23;99719.21;;;1.14;76.28
33949;BME280;20229;49.856;19.030;2024-01-15T19:13:38;99725.49;;;1.13;75.93
33949;BME280;20229;49.856;19.030;2024-01-15T19:18:52;99729.09;;;1.13;75.97
33949;BME280;20229;49.856;19.030;2024-01-15T19:24:06;99734.50;;;1.12;75.66
33949;BME280;20229;49.856;19.030;2024-01-15T19:29:22;99731.01;;;1.10;75.76
33949;BME280;20229;49.856;19.030;2024-01-15T19:34:38;99735.54;;;1.08;75.32
33949;BME280;20229;49.856;19.030;2024-01-15T19:39:53;99739.20;;;1.05;75.50
33949;BME280;20229;49.856;19.030;2024-01-15T19:45:08;99739.27;;;1.04;75.22
33949;BME280;20229;49.856;19.030;2024-01-15T19:50:22;99745.70;;;0.98;75.09
33949;BME280;20229;49.856;19.030;2024-01-15T19:55:36;99741.37;;;0.94;75.22
33949;BME280;20229;49.856;19.030;2024-01-15T20:00:50;99751.43;;;0.87;75.18
33949;BME280;20229;49.856;19.030;2024-01-15T20:06:05;99763.05;;;0.88;75.51
33949;BME280;20229;49.856;19.030;2024-01-15T20:11:26;99761.11;;;0.93;75.35
33949;BME280;20229;49.856;19.030;2024-01-15T20:16:40;99776.13;;;0.99;75.47
33949;BME280;20229;49.856;19.030;2024-01-15T20:21:55;99773.52;;;0.97;75.36
33949;BME280;20229;49.856;19.030;2024-01-15T20:27:09;99777.05;;;0.99;75.38
33949;BME280;20229;49.856;19.030;2024-01-15T20:32:26;99779.66;;;1.01;74.99
33949;BME280;20229;49.856;19.030;2024-01-15T20:37:41;99778.89;;;0.97;75.05
33949;BME280;20229;49.856;19.030;2024-01-15T20:42:55;99790.70;;;0.91;74.70
33949;BME280;20229;49.856;19.030;2024-01-15T20:48:09;99788.85;;;0.93;74.88
33949;BME280;20229;49.856;19.030;2024-01-15T20:53:23;99795.17;;;0.92;74.63
33949;BME280;20229;49.856;19.030;2024-01-15T20:58:37;99809.48;;;0.93;74.50
33949;BME280;20229;49.856;19.030;2024-01-15T21:03:51;99806.95;;;0.88;74.54
33949;BME280;20229;49.856;19.030;2024-01-15T21:09:05;99806.04;;;0.88;74.96
33949;BME280;20229;49.856;19.030;2024-01-15T21:14:20;99791.64;;;0.90;75.02
33949;BME280;20229;49.856;19.030;2024-01-15T21:19:34;99815.82;;;0.90;75.21
33949;BME280;20229;49.856;19.030;2024-01-15T21:24:48;99812.41;;;0.85;75.42
33949;BME280;20229;49.856;19.030;2024-01-15T21:30:03;99816.15;;;0.80;75.45
33949;BME280;20229;49.856;19.030;2024-01-15T21:35:17;99813.55;;;0.77;75.46
33949;BME280;20229;49.856;19.030;2024-01-15T21:40:33;99823.34;;;0.79;75.48
33949;BME280;20229;49.856;19.030;2024-01-15T21:45:47;99837.59;;;0.81;75.37
33949;BME280;20229;49.856;19.030;2024-01-15T21:51:01;99834.86;;;0.83;75.30
33949;BME280;20229;49.856;19.030;2024-01-15T21:56:17;99841.12;;;0.83;75.65
33949;BME280;20229;49.856;19.030;2024-01-15T22:01:31;99841.12;;;0.83;75.50
33949;BME280;20229;49.856;19.030;2024-01-15T22:06:45;99834.95;;;0.80;75.61
33949;BME280;20229;49.856;19.030;2024-01-15T22:11:59;99843.89;;;0.80;75.17
33949;BME280;20229;49.856;19.030;2024-01-15T22:17:14;99852.89;;;0.79;75.27
33949;BME280;20229;49.856;19.030;2024-01-15T22:22:29;99868.95;;;0.81;75.29
33949;BME280;20229;49.856;19.030;2024-01-15T22:27:43;99863.63;;;0.79;75.74
33949;BME280;20229;49.856;19.030;2024-01-15T22:32:57;99873.45;;;0.80;75.78
33949;BME280;20229;49.856;19.030;2024-01-15T22:38:11;99861.81;;;0.80;75.69
33949;BME280;20229;49.856;19.030;2024-01-15T22:43:26;99866.23;;;0.82;75.90
33949;BME280;20229;49.856;19.030;2024-01-15T22:48:41;99854.70;;;0.79;75.67
33949;BME280;20229;49.856;19.030;2024-01-15T22:53:55;99848.45;;;0.78;75.80
33949;BME280;20229;49.856;19.030;2024-01-15T22:59:09;99859.28;;;0.75;76.20
33949;BME280;20229;49.856;19.030;2024-01-15T23:04:23;99860.31;;;0.71;76.45
33949;BME280;20229;49.856;19.030;2024-01-15T23:09:38;99869.41;;;0.65;76.61
33949;BME280;20229;49.856;19.030;2024-01-15T23:14:55;99880.95;;;0.69;76.40
33949;BME280;20229;49.856;19.030;2024-01-15T23:20:10;99880.95;;;0.69;76.89
33949;BME280;20229;49.856;19.030;2024-01-15T23:25:26;99888.83;;;0.75;77.18
33949;BME280;20229;49.856;19.030;2024-01-15T23:30:40;99874.95;;;0.59;76.78
33949;BME280;20229;49.856;19.030;2024-01-15T23:35:54;99900.28;;;0.82;76.95
33949;BME280;20229;49.856;19.030;2024-01-15T23:46:38;99911.90;;;0.82;77.18
33949;BME280;20229;49.856;19.030;2024-01-15T23:51:54;99914.59;;;0.82;78.39
33949;BME280;20229;49.856;19.030;2024-01-15T23:57:07;99920.78;;;0.84;78.59
